Time;durP1;ratioP1;P1;durP2;ratioP2;P2;SDS_P1;SDS_P2;PMS_P1;PMS_P2;Temp;Humidity;BMP_temperature;BMP_pressure;BME280_temperature;BME280_humidity;BME280_pressure;Samples;Min_cycle;Max_cycle;Signal;HPM_P1;HPM_P2
2024/04/09 00:02:43;;;;;;;19.93;6.63;;;18.00;64.50;;;;;;6820580;26;20558;-66
2024/04/09 00:05:46;;;;;;;20.60;4.90;;;17.80;65.00;;;;;;6788437;26;20553;-66
2024/04/09 00:08:48;;;;;;;13.13;4.77;;;17.80;64.70;;;;;;6788739;26;20454;-66
2024/04/09 00:11:53;;;;;;;13.30;5.17;;;17.90;64.60;;;;;;6820985;26;20580;-67
2024/04/09 00:14:55;;;;;;;13.70;4.80;;;17.80;64.80;;;;;;6820423;26;20558;-67
2024/04/09 00:18:11;;;;;;;12.60;5.80;;;17.80;64.50;;;;;;6820882;26;20450;-67
2024/04/09 00:21:13;;;;;;;14.80;5.00;;;17.80;64.50;;;;;;6820898;26;20443;-68
2024/04/09 00:24:16;;;;;;;17.87;5.27;;;17.80;64.30;;;;;;6820346;26;20510;-68
2024/04/09 00:27:19;;;;;;;17.60;5.60;;;17.80;63.80;;;;;;6821143;26;20458;-67
2024/04/09 00:30:21;;;;;;;10.33;5.17;;;17.80;63.80;;;;;;6789514;26;20518;-66
2024/04/09 00:33:23;;;;;;;18.30;5.60;;;17.80;63.70;;;;;;6789114;26;20458;-66
2024/04/09 00:36:25;;;;;;;15.60;5.87;;;17.80;63.30;;;;;;6820393;26;20450;-65
2024/04/09 00:39:29;;;;;;;19.63;5.17;;;17.80;62.90;;;;;;6788192;26;20513;-66
2024/04/09 00:42:31;;;;;;;13.17;5.30;;;17.90;62.70;;;;;;6819468;26;20466;-66
2024/04/09 00:45:33;;;;;;;13.33;4.80;;;17.90;62.80;;;;;;6821036;26;20430;-67
2024/04/09 00:48:36;;;;;;;11.97;4.83;;;17.80;64.00;;;;;;6820247;26;20447;-66
2024/04/09 00:51:39;;;;;;;11.83;5.53;;;17.80;66.10;;;;;;6787833;26;20474;-66
2024/04/09 00:54:44;;;;;;;14.70;4.83;;;17.50;67.20;;;;;;6788267;26;20446;-67
2024/04/09 00:57:48;;;;;;;14.37;6.03;;;17.50;67.50;;;;;;6820434;26;20807;-67
2024/04/09 01:00:50;;;;;;;14.50;5.47;;;17.40;68.20;;;;;;6820376;26;20550;-67
2024/04/09 01:03:52;;;;;;;24.40;4.90;;;17.30;68.00;;;;;;6819864;26;20502;-66
2024/04/09 01:06:54;;;;;;;12.77;5.50;;;17.20;68.10;;;;;;6820105;26;20447;-66
2024/04/09 01:09:56;;;;;;;16.27;4.67;;;17.20;67.90;;;;;;6819186;26;20944;-67
2024/04/09 01:12:59;;;;;;;21.37;5.63;;;17.10;68.00;;;;;;6818732;26;20615;-67
2024/04/09 01:16:01;;;;;;;14.30;5.17;;;17.10;68.10;;;;;;6819539;26;20450;-68
2024/04/09 01:19:04;;;;;;;20.77;6.37;;;17.10;68.20;;;;;;6819600;26;20509;-68
2024/04/09 01:22:06;;;;;;;13.83;5.53;;;17.00;68.10;;;;;;6819344;26;20454;-67
2024/04/09 01:25:11;;;;;;;24.73;6.23;;;17.00;68.20;;;;;;6818444;26;21036;-66
2024/04/09 01:28:13;;;;;;;12.57;5.53;;;16.90;68.10;;;;;;6818977;26;20514;-64
2024/04/09 01:31:16;;;;;;;13.63;4.80;;;17.00;68.70;;;;;;6818786;26;20850;-65
2024/04/09 01:34:18;;;;;;;18.67;5.20;;;17.00;68.50;;;;;;6818914;26;20830;-65
2024/04/09 01:37:20;;;;;;;12.20;5.20;;;17.00;68.70;;;;;;6819390;26;20934;-65
2024/04/09 01:40:23;;;;;;;12.73;5.20;;;17.00;69.00;;;;;;6821539;26;20458;-66
2024/04/09 01:43:25;;;;;;;27.93;6.10;;;17.00;69.50;;;;;;6819745;26;20461;-65
2024/04/09 01:46:27;;;;;;;16.23;5.30;;;17.00;69.50;;;;;;6787464;26;20614;-65
2024/04/09 01:49:29;;;;;;;15.67;5.03;;;17.00;69.40;;;;;;6824168;26;20505;-66
2024/04/09 01:52:31;;;;;;;13.07;4.97;;;17.00;69.10;;;;;;6825759;26;20541;-65
2024/04/09 01:55:33;;;;;;;14.50;5.67;;;17.00;69.80;;;;;;6827786;26;20446;-65
2024/04/09 01:58:39;;;;;;;14.03;5.40;;;17.00;69.90;;;;;;6830168;26;20832;-65
2024/04/09 02:01:41;;;;;;;14.30;4.80;;;16.90;70.00;;;;;;6831484;26;20505;-65
2024/04/09 02:04:43;;;;;;;13.13;5.13;;;16.80;70.20;;;;;;6831221;26;21008;-65
2024/04/09 02:07:45;;;;;;;13.17;5.20;;;16.80;70.30;;;;;;6831812;26;20499;-65
2024/04/09 02:10:47;;;;;;;15.93;5.60;;;16.90;70.00;;;;;;6830955;26;20461;-65
2024/04/09 02:13:49;;;;;;;14.67;5.80;;;16.90;69.40;;;;;;6831223;26;20501;-65
2024/04/09 02:16:51;;;;;;;15.73;5.33;;;16.90;68.50;;;;;;6832162;26;20449;-66
2024/04/09 02:19:53;;;;;;;15.13;5.37;;;16.90;68.40;;;;;;6804824;26;20510;-66
2024/04/09 02:22:55;;;;;;;12.37;5.07;;;16.90;67.10;;;;;;6827384;26;20512;-65
2024/04/09 02:25:56;;;;;;;15.37;5.30;;;16.90;68.70;;;;;;6823699;26;20469;-66
2024/04/09 02:28:59;;;;;;;20.83;5.40;;;16.90;68.70;;;;;;6822762;26;20469;-65
2024/04/09 02:32:00;;;;;;;20.73;5.50;;;16.90;68.90;;;;;;6821966;26;20514;-66
2024/04/09 02:35:10;;;;;;;22.93;5.80;;;16.80;69.80;;;;;;6822217;26;20466;-65
2024/04/09 02:38:12;;;;;;;12.10;5.47;;;16.70;69.90;;;;;;6789524;26;20507;-65
2024/04/09 02:41:16;;;;;;;15.93;5.50;;;16.70;70.10;;;;;;6822583;26;20466;-65
2024/04/09 02:44:18;;;;;;;21.80;5.40;;;16.70;70.30;;;;;;6821601;26;20442;-65
2024/04/09 02:47:20;;;;;;;20.80;5.93;;;16.60;69.90;;;;;;6821091;26;20494;-65
2024/04/09 02:50:22;;;;;;;18.87;5.60;;;16.60;70.10;;;;;;6821683;26;20803;-67
2024/04/09 02:53:25;;;;;;;20.93;5.80;;;16.60;69.70;;;;;;6789217;26;20474;-65
2024/04/09 02:56:26;;;;;;;18.50;5.40;;;16.60;70.00;;;;;;6821378;26;20446;-65
2024/04/09 02:59:28;;;;;;;16.70;5.97;;;16.60;70.20;;;;;;6821073;26;20509;-65
2024/04/09 03:02:30;;;;;;;13.70;5.03;;;16.60;70.20;;;;;;6820843;26;20517;-65
2024/04/09 03:05:32;;;;;;;12.80;5.03;;;16.60;70.30;;;;;;6820668;26;20489;-65
2024/04/09 03:08:35;;;;;;;19.00;5.83;;;16.60;70.50;;;;;;6821486;26;20525;-65
2024/04/09 03:11:37;;;;;;;14.00;5.53;;;16.60;70.20;;;;;;6820536;26;20826;-65
2024/04/09 03:14:38;;;;;;;22.83;5.43;;;16.60;70.20;;;;;;6820177;26;20462;-66
2024/04/09 03:17:41;;;;;;;19.53;5.90;;;16.60;69.70;;;;;;6820150;26;20446;-64
2024/04/09 03:20:44;;;;;;;22.47;6.47;;;16.70;69.20;;;;;;6820298;26;20504;-65
2024/04/09 03:23:46;;;;;;;18.53;5.97;;;16.70;68.90;;;;;;6820017;26;20458;-65
2024/04/09 03:26:49;;;;;;;20.83;5.50;;;16.70;68.60;;;;;;6820169;26;20498;-65
2024/04/09 03:29:51;;;;;;;19.93;5.97;;;16.70;67.90;;;;;;6820303;26;20518;-64
2024/04/09 03:32:53;;;;;;;17.73;5.37;;;16.80;67.30;;;;;;6787833;26;20502;-65
2024/04/09 03:35:57;;;;;;;26.00;5.80;;;16.80;66.50;;;;;;6820084;26;20533;-65
2024/04/09 03:38:59;;;;;;;24.37;5.70;;;17.00;65.80;;;;;;6819695;26;20832;-65
2024/04/09 03:42:01;;;;;;;20.20;5.83;;;17.00;66.00;;;;;;6819971;26;20568;-66
2024/04/09 03:45:05;;;;;;;18.60;5.97;;;17.10;65.80;;;;;;6819597;26;20454;-65
2024/04/09 03:48:07;;;;;;;21.37;5.97;;;17.10;65.70;;;;;;6819973;26;20463;-66
2024/04/09 03:51:13;;;;;;;24.20;6.43;;;17.20;65.70;;;;;;6819826;26;20517;-65
2024/04/09 03:54:15;;;;;;;17.90;5.53;;;17.20;65.90;;;;;;6819853;26;20926;-65
2024/04/09 03:57:17;;;;;;;26.17;5.93;;;17.20;66.30;;;;;;6819452;26;20513;-65
2024/04/09 04:00:19;;;;;;;20.60;5.50;;;17.20;67.20;;;;;;6819468;26;20450;-66
2024/04/09 04:03:21;;;;;;;21.13;5.83;;;17.10;66.60;;;;;;6819568;26;20465;-65
2024/04/09 04:06:23;;;;;;;24.33;6.17;;;17.10;66.30;;;;;;6819446;26;20446;-66
2024/04/09 04:09:25;;;;;;;18.37;6.13;;;17.10;66.20;;;;;;6819314;26;20458;-66
2024/04/09 04:12:27;;;;;;;19.57;5.60;;;17.10;65.40;;;;;;6819068;26;20453;-66
2024/04/09 04:15:29;;;;;;;14.20;6.00;;;17.20;65.50;;;;;;6819002;26;20498;-66
2024/04/09 04:18:36;;;;;;;13.40;5.10;;;17.20;65.00;;;;;;6818034;26;20458;-66
2024/04/09 04:21:38;;;;;;;18.03;6.03;;;17.20;65.10;;;;;;6826694;26;20447;-65
2024/04/09 04:24:40;;;;;;;18.70;6.30;;;17.30;64.80;;;;;;6819402;26;20519;-66
2024/04/09 04:27:44;;;;;;;22.53;5.83;;;17.30;64.50;;;;;;6787966;26;20502;-66
2024/04/09 04:30:46;;;;;;;19.07;5.40;;;17.30;65.10;;;;;;6820910;26;21041;-65
2024/04/09 04:33:52;;;;;;;16.13;5.27;;;17.30;64.70;;;;;;6819470;26;20538;-66
2024/04/09 04:36:54;;;;;;;16.80;5.27;;;17.30;65.10;;;;;;6788446;26;20926;-66
2024/04/09 04:39:56;;;;;;;16.10;5.00;;;17.30;64.20;;;;;;6819594;26;20466;-66
2024/04/09 04:43:00;;;;;;;16.27;4.40;;;17.30;63.00;;;;;;6787320;26;20522;-66
2024/04/09 04:46:04;;;;;;;14.07;4.17;;;17.50;61.00;;;;;;6819233;26;20530;-66
2024/04/09 04:49:06;;;;;;;19.90;3.90;;;17.70;60.30;;;;;;6819185;26;20454;-65
2024/04/09 04:52:08;;;;;;;18.00;4.10;;;17.70;60.20;;;;;;6819680;26;20914;-65
2024/04/09 04:55:09;;;;;;;11.83;3.57;;;17.80;60.00;;;;;;6817388;26;20446;-65
2024/04/09 04:58:11;;;;;;;14.43;3.30;;;17.80;60.20;;;;;;6817251;26;20457;-64
2024/04/09 05:01:13;;;;;;;10.33;3.90;;;17.80;60.60;;;;;;6819092;26;20572;-65
2024/04/09 05:04:15;;;;;;;16.87;4.20;;;17.90;60.90;;;;;;6819149;26;20560;-64
2024/04/09 05:07:17;;;;;;;13.83;4.60;;;17.80;60.60;;;;;;6819071;26;20843;-65
2024/04/09 05:10:19;;;;;;;11.60;3.87;;;17.80;61.00;;;;;;6818522;26;20505;-65
2024/04/09 05:13:21;;;;;;;8.07;3.63;;;17.80;60.90;;;;;;6786186;26;20803;-66
2024/04/09 05:16:23;;;;;;;10.60;4.13;;;17.80;61.40;;;;;;6819108;26;20437;-65
2024/04/09 05:19:24;;;;;;;6.43;3.40;;;17.70;61.60;;;;;;6819691;26;20462;-65
2024/04/09 05:22:27;;;;;;;11.27;3.97;;;17.80;61.80;;;;;;6817316;26;20545;-66
2024/04/09 05:25:30;;;;;;;12.33;3.20;;;17.70;62.40;;;;;;6817058;26;20494;-66
2024/04/09 05:28:32;;;;;;;10.00;2.90;;;17.70;62.90;;;;;;6817424;26;20502;-67
2024/04/09 05:31:34;;;;;;;12.77;3.60;;;17.60;63.00;;;;;;6820721;26;20481;-66
2024/04/09 05:34:36;;;;;;;8.90;2.70;;;17.60;63.30;;;;;;6789314;26;20465;-66
2024/04/09 05:37:38;;;;;;;8.20;2.87;;;17.60;63.60;;;;;;6789605;26;20470;-66
2024/04/09 05:40:40;;;;;;;9.77;3.47;;;17.60;63.60;;;;;;6822099;26;20453;-66
2024/04/09 05:43:42;;;;;;;9.90;3.07;;;17.60;63.50;;;;;;6822927;26;20434;-68
2024/04/09 05:46:45;;;;;;;8.20;2.90;;;17.60;63.70;;;;;;6821934;26;20813;-67
2024/04/09 05:49:47;;;;;;;6.00;2.63;;;17.60;63.70;;;;;;6828089;26;20529;-66
2024/04/09 05:52:49;;;;;;;8.90;2.97;;;17.60;64.10;;;;;;6821322;26;20473;-66
2024/04/09 05:55:57;;;;;;;10.97;2.93;;;17.60;64.30;;;;;;6821292;26;20465;-66
2024/04/09 05:58:58;;;;;;;9.63;3.20;;;17.60;64.20;;;;;;6820906;26;20611;-67
2024/04/09 06:02:01;;;;;;;6.67;2.40;;;17.60;64.10;;;;;;6821306;26;20548;-66
2024/04/09 06:05:03;;;;;;;4.53;2.50;;;17.70;64.20;;;;;;6820977;26;20619;-67
2024/04/09 06:08:06;;;;;;;8.53;2.77;;;17.70;64.10;;;;;;6821464;26;20454;-65
2024/04/09 06:11:08;;;;;;;5.13;2.80;;;17.70;64.40;;;;;;6821166;26;20458;-67
2024/04/09 06:14:09;;;;;;;5.40;2.63;;;17.70;64.10;;;;;;6828336;26;20509;-66
2024/04/09 06:17:11;;;;;;;6.73;2.47;;;17.70;64.00;;;;;;6832361;26;20844;-66
2024/04/09 06:20:14;;;;;;;10.50;2.90;;;17.70;64.40;;;;;;6824746;26;20506;-67
2024/04/09 06:23:16;;;;;;;5.13;2.13;;;17.60;64.90;;;;;;6834268;26;20454;-66
2024/04/09 06:26:20;;;;;;;5.23;2.03;;;17.50;65.80;;;;;;6830060;26;20532;-67
2024/04/09 06:29:22;;;;;;;3.20;1.80;;;17.50;66.90;;;;;;6836543;26;20438;-66
2024/04/09 06:32:24;;;;;;;2.10;1.53;;;17.40;67.90;;;;;;6803290;26;20501;-66
2024/04/09 06:35:28;;;;;;;10.77;1.80;;;17.20;69.10;;;;;;6835277;26;20512;-66
2024/04/09 06:38:30;;;;;;;3.57;2.33;;;17.20;69.90;;;;;;6833466;26;20491;-66
2024/04/09 06:41:32;;;;;;;7.47;2.30;;;17.10;70.50;;;;;;6827058;26;20563;-66
2024/04/09 06:44:34;;;;;;;3.23;2.00;;;17.10;70.80;;;;;;6824598;26;20481;-66
2024/04/09 06:47:36;;;;;;;6.73;1.50;;;17.10;71.20;;;;;;6793672;26;20604;-66
2024/04/09 06:50:38;;;;;;;5.30;1.80;;;17.10;71.80;;;;;;6823968;26;20981;-67
2024/04/09 06:53:40;;;;;;;3.43;1.80;;;17.00;72.00;;;;;;6824090;26;20831;-67
2024/04/09 06:56:42;;;;;;;3.60;1.70;;;17.10;72.20;;;;;;6825594;26;20572;-67
2024/04/09 06:59:44;;;;;;;3.13;1.57;;;17.00;72.50;;;;;;6829716;26;20929;-67
2024/04/09 07:02:46;;;;;;;4.97;2.03;;;16.90;72.80;;;;;;6827448;26;20450;-66
2024/04/09 07:05:48;;;;;;;4.30;1.70;;;16.70;73.50;;;;;;6823613;26;20505;-67
2024/04/09 07:08:50;;;;;;;4.87;1.93;;;16.70;73.70;;;;;;6829133;26;20450;-67
2024/04/09 07:11:52;;;;;;;7.50;1.63;;;16.70;73.60;;;;;;6834214;26;20454;-66
2024/04/09 07:14:54;;;;;;;2.90;1.57;;;16.80;73.40;;;;;;6830931;26;20469;-67
2024/04/09 07:17:56;;;;;;;4.23;1.70;;;16.90;73.00;;;;;;6830817;26;20909;-67
2024/04/09 07:20:59;;;;;;;1.90;1.17;;;17.00;72.60;;;;;;6838233;26;20454;-68
2024/04/09 07:24:03;;;;;;;1.53;1.00;;;16.90;72.10;;;;;;6834818;26;20443;-66
2024/04/09 07:27:05;;;;;;;1.37;1.00;;;16.90;69.30;;;;;;6790287;26;20499;-66
2024/04/09 07:30:07;;;;;;;3.10;1.50;;;16.90;68.50;;;;;;6821847;26;20450;-67
2024/04/09 07:33:09;;;;;;;1.83;1.00;;;16.90;68.70;;;;;;6821829;26;20637;-67
2024/04/09 07:36:11;;;;;;;1.10;0.90;;;16.90;68.50;;;;;;6821262;26;20466;-66
2024/04/09 07:39:14;;;;;;;4.33;1.40;;;16.90;69.10;;;;;;6820525;26;20584;-67
2024/04/09 07:42:17;;;;;;;2.23;1.10;;;17.00;69.20;;;;;;6820864;26;20481;-67
2024/04/09 07:45:19;;;;;;;1.87;1.00;;;17.10;68.60;;;;;;6820992;26;20442;-66
2024/04/09 07:48:21;;;;;;;1.50;0.93;;;17.10;68.90;;;;;;6788740;26;20450;-67
2024/04/09 07:51:23;;;;;;;1.63;0.90;;;17.10;69.30;;;;;;6820386;26;20543;-67
2024/04/09 07:54:26;;;;;;;1.93;0.97;;;17.00;68.30;;;;;;6822943;26;20905;-68
2024/04/09 07:57:28;;;;;;;1.67;0.93;;;16.70;68.80;;;;;;6819920;26;20461;-67
2024/04/09 08:00:30;;;;;;;1.03;0.90;;;16.70;68.00;;;;;;6820564;26;20998;-66
2024/04/09 08:03:32;;;;;;;1.70;1.00;;;16.70;69.20;;;;;;6819673;26;20552;-66
2024/04/09 08:06:34;;;;;;;2.50;0.80;;;16.60;68.90;;;;;;6787640;26;20461;-66
2024/04/09 08:09:37;;;;;;;0.87;0.80;;;16.30;68.90;;;;;;6819620;26;20774;-66
2024/04/09 08:12:54;;;;;;;1.00;0.80;;;15.80;68.90;;;;;;6819406;26;20442;-65
2024/04/09 08:15:56;;;;;;;1.10;0.63;;;15.30;69.20;;;;;;6787676;26;20458;-66
2024/04/09 08:18:58;;;;;;;0.70;0.70;;;15.00;69.20;;;;;;6819530;26;20545;-67
2024/04/09 08:22:01;;;;;;;1.57;0.80;;;14.80;69.90;;;;;;6819312;26;20458;-67
2024/04/09 08:25:04;;;;;;;2.30;0.90;;;14.70;70.30;;;;;;6819057;26;20458;-67
2024/04/09 08:28:07;;;;;;;0.83;0.77;;;14.60;69.90;;;;;;6818957;26;20782;-66
2024/04/09 08:31:12;;;;;;;1.37;0.70;;;14.40;70.40;;;;;;6787406;26;20540;-67
2024/04/09 08:34:14;;;;;;;1.43;0.70;;;14.30;70.50;;;;;;6818594;26;20829;-67
2024/04/09 08:37:18;;;;;;;0.93;0.83;;;14.20;70.50;;;;;;6786465;26;20462;-67
2024/04/09 08:40:21;;;;;;;2.80;1.13;;;14.20;70.60;;;;;;6818742;26;20442;-65
2024/04/09 08:43:25;;;;;;;1.47;0.93;;;14.00;70.30;;;;;;6819905;26;21013;-67
2024/04/09 08:46:31;;;;;;;0.90;0.80;;;14.00;68.30;;;;;;6825548;26;20446;-66
2024/04/09 08:49:34;;;;;;;1.53;1.03;;;13.80;67.30;;;;;;6827037;26;20458;-68
2024/04/09 08:52:37;;;;;;;1.23;0.70;;;13.80;67.50;;;;;;6830757;26;20470;-65
2024/04/09 08:55:39;;;;;;;1.20;1.00;;;13.80;66.50;;;;;;6830630;26;20560;-68
2024/04/09 08:58:41;;;;;;;3.00;1.00;;;13.80;65.70;;;;;;6830096;26;20458;-66
2024/04/09 09:01:43;;;;;;;3.33;0.80;;;13.80;65.10;;;;;;6824053;26;20518;-68
2024/04/09 09:04:45;;;;;;;5.93;1.00;;;13.70;64.30;;;;;;6818656;26;20760;-68
2024/04/09 09:08:01;;;;;;;1.00;0.90;;;13.70;63.70;;;;;;6822826;26;20450;-66
2024/04/09 09:11:09;;;;;;;1.17;0.97;;;13.60;62.80;;;;;;6818821;26;20678;-66
2024/04/09 09:14:11;;;;;;;1.40;1.00;;;13.60;61.90;;;;;;6818159;26;20529;-65
2024/04/09 09:17:13;;;;;;;1.40;1.30;;;13.70;62.20;;;;;;6817268;26;20497;-66
2024/04/09 09:20:16;;;;;;;1.73;1.00;;;13.70;63.10;;;;;;6786860;26;20450;-66
2024/04/09 09:23:18;;;;;;;2.47;1.13;;;13.80;64.20;;;;;;6818136;26;20591;-70
2024/04/09 09:26:24;;;;;;;1.30;1.20;;;13.70;64.40;;;;;;6817982;26;20692;-66
2024/04/09 09:29:26;;;;;;;2.37;1.00;;;13.60;63.90;;;;;;6818526;26;20868;-66
2024/04/09 09:32:28;;;;;;;6.30;1.10;;;13.60;63.90;;;;;;6786289;26;20458;-66
2024/04/09 09:35:35;;;;;;;2.93;1.30;;;13.40;63.60;;;;;;6819794;26;20454;-66
2024/04/09 09:38:37;;;;;;;4.17;1.40;;;13.30;63.90;;;;;;6827466;26;20557;-66
2024/04/09 09:41:41;;;;;;;1.33;1.20;;;13.30;63.50;;;;;;6797286;26;20466;-66
2024/04/09 09:44:45;;;;;;;3.33;1.20;;;13.20;63.70;;;;;;6826549;26;20462;-66
2024/04/09 09:47:47;;;;;;;2.67;1.50;;;13.10;62.80;;;;;;6817365;26;20510;-65
2024/04/09 09:50:49;;;;;;;2.17;1.13;;;13.10;62.60;;;;;;6817762;26;20462;-67
2024/04/09 09:53:52;;;;;;;1.57;1.20;;;13.10;62.80;;;;;;6817332;26;20507;-65
2024/04/09 09:57:04;;;;;;;3.07;1.40;;;13.20;63.70;;;;;;6817375;26;20501;-65
2024/04/09 10:00:09;;;;;;;1.60;1.50;;;13.30;63.50;;;;;;6817297;26;20450;-65
2024/04/09 10:03:12;;;;;;;2.37;1.47;;;13.30;62.80;;;;;;6817369;26;20446;-66
2024/04/09 10:06:14;;;;;;;1.57;1.00;;;13.30;62.40;;;;;;6817919;26;20803;-66
2024/04/09 10:09:18;;;;;;;1.87;1.30;;;13.20;60.50;;;;;;6784722;26;20531;-67
2024/04/09 10:12:30;;;;;;;1.30;1.20;;;13.10;61.60;;;;;;6816405;26;20510;-66
2024/04/09 10:15:32;;;;;;;1.73;1.10;;;12.90;62.20;;;;;;6819220;26;20470;-66
2024/04/09 10:18:37;;;;;;;2.10;1.57;;;13.00;62.80;;;;;;6821375;26;20454;-65
2024/04/09 10:21:41;;;;;;;2.50;1.40;;;13.00;62.80;;;;;;6820452;26;20493;-66
2024/04/09 10:24:43;;;;;;;2.03;1.30;;;12.90;63.20;;;;;;6820657;26;20445;-66
2024/04/09 10:27:47;;;;;;;4.87;1.70;;;12.90;62.20;;;;;;6820926;26;20502;-64
2024/04/09 10:30:51;;;;;;;2.10;1.30;;;12.80;61.80;;;;;;6820611;26;20462;-65
2024/04/09 10:33:57;;;;;;;1.63;1.53;;;12.80;62.40;;;;;;6788660;26;20960;-65
2024/04/09 10:37:00;;;;;;;1.60;1.50;;;12.90;62.60;;;;;;6821394;26;20838;-66
2024/04/09 10:40:02;;;;;;;2.40;1.80;;;13.00;63.40;;;;;;6820962;26;21009;-66
2024/04/09 10:43:08;;;;;;;4.07;2.20;;;13.00;64.90;;;;;;6821329;26;20989;-65
2024/04/09 10:46:11;;;;;;;3.57;2.00;;;13.00;64.70;;;;;;6821466;26;20503;-65
2024/04/09 10:49:17;;;;;;;4.83;1.77;;;13.00;64.20;;;;;;6821402;26;20450;-66
2024/04/09 10:52:20;;;;;;;1.60;1.50;;;13.00;63.40;;;;;;6821447;26;20703;-65
2024/04/09 10:55:22;;;;;;;2.90;2.00;;;12.90;61.40;;;;;;6788184;26;20497;-64
2024/04/09 10:58:23;;;;;;;2.17;1.50;;;12.80;62.80;;;;;;6819587;26;20973;-64
2024/04/09 11:01:25;;;;;;;2.30;1.53;;;12.90;61.40;;;;;;6823059;26;20469;-64
2024/04/09 11:04:28;;;;;;;3.17;1.67;;;12.90;61.60;;;;;;6791447;26;20449;-65
2024/04/09 11:07:34;;;;;;;9.97;2.10;;;12.80;61.10;;;;;;6823077;26;20530;-64
2024/04/09 11:10:38;;;;;;;1.47;1.30;;;12.80;61.50;;;;;;6822555;26;20510;-65
2024/04/09 11:13:41;;;;;;;3.47;1.40;;;12.70;63.70;;;;;;6820471;26;20457;-65
2024/04/09 11:16:49;;;;;;;5.23;1.70;;;12.90;64.30;;;;;;6819823;26;20504;-65
2024/04/09 11:19:51;;;;;;;2.60;1.73;;;12.90;63.80;;;;;;6822809;26;20489;-66
2024/04/09 11:22:54;;;;;;;3.07;1.53;;;12.80;60.90;;;;;;6820487;26;20569;-66
2024/04/09 11:25:56;;;;;;;1.63;1.40;;;12.60;61.20;;;;;;6822025;26;20839;-66
2024/04/09 11:28:58;;;;;;;2.97;1.80;;;12.40;62.10;;;;;;6821229;26;20474;-65
2024/04/09 11:32:04;;;;;;;3.13;1.60;;;12.30;62.70;;;;;;6823764;26;20461;-66
2024/04/09 11:35:26;;;;;;;4.90;1.77;;;12.20;63.50;;;;;;6823265;26;20462;-65
2024/04/09 11:38:28;;;;;;;3.57;1.57;;;12.30;63.60;;;;;;6780053;26;20458;-66
2024/04/09 11:41:30;;;;;;;4.20;2.23;;;12.40;65.90;;;;;;6823046;26;20454;-66
2024/04/09 11:44:32;;;;;;;3.07;1.60;;;12.40;66.00;;;;;;6821850;26;20457;-65
2024/04/09 11:47:35;;;;;;;3.63;1.40;;;12.40;66.60;;;;;;6820851;26;20490;-65
2024/04/09 11:50:38;;;;;;;2.07;1.10;;;12.30;66.60;;;;;;6820753;26;20442;-66
2024/04/09 11:53:45;;;;;;;2.37;1.53;;;12.20;66.70;;;;;;6819631;26;20814;-67
2024/04/09 11:56:47;;;;;;;1.93;1.30;;;12.20;66.20;;;;;;6818451;26;20521;-66
2024/04/09 11:59:50;;;;;;;3.93;1.27;;;12.00;66.60;;;;;;6818589;26;20477;-65
2024/04/09 12:02:51;;;;;;;1.67;1.50;;;12.00;66.60;;;;;;6818920;26;20506;-66
2024/04/09 12:05:53;;;;;;;3.53;1.30;;;12.00;66.80;;;;;;6787314;26;20465;-66
2024/04/09 12:08:55;;;;;;;3.67;1.30;;;12.00;66.70;;;;;;6818642;26;20450;-66
2024/04/09 12:11:57;;;;;;;2.57;1.43;;;12.00;66.90;;;;;;6818166;26;20470;-65
2024/04/09 12:14:59;;;;;;;4.00;1.60;;;12.00;67.00;;;;;;6786361;26;20564;-66
2024/04/09 12:18:01;;;;;;;2.40;1.43;;;12.00;67.40;;;;;;6818694;26;20548;-66
2024/04/09 12:21:04;;;;;;;1.90;1.40;;;12.20;67.30;;;;;;6786355;26;20462;-66
2024/04/09 12:24:06;;;;;;;3.57;1.50;;;12.30;67.90;;;;;;6818363;26;20438;-65
2024/04/09 12:27:08;;;;;;;2.20;1.30;;;12.30;69.20;;;;;;6788741;26;20489;-64
2024/04/09 12:30:10;;;;;;;5.20;1.17;;;12.10;70.60;;;;;;6819080;26;20493;-66
2024/04/09 12:33:13;;;;;;;3.00;1.20;;;12.00;71.70;;;;;;6817948;26;20458;-66
2024/04/09 12:36:15;;;;;;;2.50;1.30;;;11.90;73.10;;;;;;6818306;26;20445;-66
2024/04/09 12:39:20;;;;;;;3.00;1.20;;;11.80;75.10;;;;;;6817918;26;20568;-66
2024/04/09 12:42:22;;;;;;;3.10;1.47;;;11.80;74.00;;;;;;6786176;26;20465;-65
2024/04/09 12:45:25;;;;;;;1.70;1.10;;;11.80;75.30;;;;;;6818798;26;20489;-66
2024/04/09 12:48:27;;;;;;;5.10;1.40;;;11.80;76.10;;;;;;6818646;26;20459;-66
2024/04/09 12:51:30;;;;;;;1.53;1.10;;;11.90;76.10;;;;;;6818417;26;20470;-65
2024/04/09 12:54:32;;;;;;;3.23;1.40;;;11.90;76.10;;;;;;6818233;26;20457;-65
2024/04/09 12:57:34;;;;;;;1.87;1.10;;;11.90;75.50;;;;;;6818377;26;20550;-65
2024/04/09 13:00:36;;;;;;;2.40;1.47;;;11.90;74.70;;;;;;6817613;26;20458;-65
2024/04/09 13:03:59;;;;;;;1.70;1.30;;;11.90;75.40;;;;;;6818105;26;20560;-65
2024/04/09 13:07:01;;;;;;;2.83;1.20;;;11.90;74.50;;;;;;6817750;26;20509;-65
2024/04/09 13:10:03;;;;;;;1.67;1.20;;;12.00;74.90;;;;;;6817839;26;20524;-65
2024/04/09 13:13:09;;;;;;;2.13;1.40;;;12.10;74.10;;;;;;6817835;26;20458;-65
2024/04/09 13:16:11;;;;;;;2.40;1.30;;;12.10;73.40;;;;;;6817315;26;20782;-66
2024/04/09 13:19:18;;;;;;;1.80;1.50;;;12.10;73.00;;;;;;6817409;26;20494;-66
2024/04/09 13:22:20;;;;;;;1.97;1.00;;;12.00;73.00;;;;;;6817183;26;20466;-66
2024/04/09 13:25:23;;;;;;;3.03;1.57;;;12.00;73.10;;;;;;6817548;26;20445;-66
2024/04/09 13:28:24;;;;;;;2.93;1.43;;;12.10;74.50;;;;;;6785756;26;20509;-66
2024/04/09 13:31:26;;;;;;;7.30;2.03;;;12.10;74.00;;;;;;6821662;26;20802;-66
2024/04/09 13:34:29;;;;;;;1.43;1.00;;;12.20;74.30;;;;;;6820326;26;20597;-66
2024/04/09 13:37:33;;;;;;;2.87;1.40;;;12.30;72.20;;;;;;6818036;26;20450;-66
2024/04/09 13:40:35;;;;;;;1.50;1.20;;;12.30;72.00;;;;;;6817547;26;20497;-66
2024/04/09 13:43:37;;;;;;;6.13;2.13;;;12.40;71.60;;;;;;6785094;26;20564;-68
2024/04/09 13:46:39;;;;;;;1.57;1.23;;;12.50;71.50;;;;;;6785065;26;20466;-66
2024/04/09 13:49:42;;;;;;;3.30;1.37;;;12.50;70.90;;;;;;6817703;26;20539;-66
2024/04/09 13:52:45;;;;;;;2.30;1.20;;;12.60;71.00;;;;;;6821618;26;20470;-66
2024/04/09 13:55:47;;;;;;;4.70;1.67;;;12.70;70.50;;;;;;6821548;26;20442;-66
2024/04/09 13:58:49;;;;;;;8.10;1.20;;;12.90;70.60;;;;;;6822059;26;20522;-65
2024/04/09 14:01:51;;;;;;;4.83;1.40;;;13.00;69.30;;;;;;6821929;26;20770;-65
2024/04/09 14:04:53;;;;;;;2.57;1.50;;;13.10;68.20;;;;;;6822238;26;20454;-65
2024/04/09 14:07:55;;;;;;;3.77;1.50;;;13.20;68.60;;;;;;6821624;26;20490;-66
2024/04/09 14:10:57;;;;;;;2.30;1.33;;;13.20;67.80;;;;;;6821341;26;20548;-65
2024/04/09 14:13:59;;;;;;;1.97;1.50;;;13.10;68.00;;;;;;6821468;26;20789;-65
2024/04/09 14:17:01;;;;;;;2.30;1.40;;;13.10;67.60;;;;;;6821352;26;20849;-66
2024/04/09 14:20:08;;;;;;;4.67;1.70;;;13.20;67.40;;;;;;6823658;26;20769;-65
2024/04/09 14:23:11;;;;;;;9.87;3.60;;;13.30;67.40;;;;;;6821819;26;20450;-65
2024/04/09 14:26:13;;;;;;;4.90;2.80;;;13.50;66.90;;;;;;6821116;26;21004;-65
2024/04/09 14:29:15;;;;;;;3.00;2.30;;;13.50;66.90;;;;;;6821211;26;20497;-65
2024/04/09 14:32:17;;;;;;;2.23;1.50;;;13.50;66.60;;;;;;6822732;26;20502;-65
2024/04/09 14:35:19;;;;;;;6.77;1.97;;;13.40;67.10;;;;;;6821579;26;20806;-65
2024/04/09 14:38:21;;;;;;;4.47;1.33;;;13.30;67.20;;;;;;6821505;26;20497;-65
2024/04/09 14:41:23;;;;;;;4.30;1.37;;;13.20;66.70;;;;;;6820404;26;20462;-66
2024/04/09 14:44:25;;;;;;;4.27;1.70;;;13.30;68.00;;;;;;6788804;26;20766;-65
2024/04/09 14:47:27;;;;;;;5.07;2.07;;;13.30;67.60;;;;;;6820790;26;20498;-65
2024/04/09 14:50:29;;;;;;;3.53;1.90;;;13.20;67.00;;;;;;6820861;26;20949;-66
2024/04/09 14:53:31;;;;;;;3.57;1.57;;;13.20;67.90;;;;;;6789764;26;20497;-65
2024/04/09 14:56:34;;;;;;;3.57;1.63;;;13.20;67.50;;;;;;6788519;26;20551;-65
2024/04/09 14:59:36;;;;;;;3.90;1.60;;;13.20;67.70;;;;;;6820783;26;20498;-65
2024/04/09 15:02:38;;;;;;;5.73;1.83;;;13.20;67.80;;;;;;6820519;26;20454;-66
2024/04/09 15:05:52;;;;;;;4.67;1.70;;;13.20;67.50;;;;;;6820992;26;20493;-66
2024/04/09 15:08:54;;;;;;;4.13;1.60;;;13.20;68.00;;;;;;6821393;26;20489;-66
2024/04/09 15:11:56;;;;;;;2.30;1.37;;;13.20;67.80;;;;;;6788795;26;20513;-65
2024/04/09 15:14:58;;;;;;;3.23;2.10;;;13.10;68.40;;;;;;6828190;26;20457;-66
2024/04/09 15:18:00;;;;;;;6.23;2.30;;;13.10;68.60;;;;;;6823353;26;20535;-65
2024/04/09 15:21:02;;;;;;;7.73;2.10;;;13.10;69.00;;;;;;6821372;26;20548;-65
2024/04/09 15:24:04;;;;;;;4.03;1.73;;;13.00;69.30;;;;;;6820031;26;20999;-65
2024/04/09 15:27:06;;;;;;;3.20;1.60;;;13.00;69.00;;;;;;6820727;26;20465;-67
2024/04/09 15:30:08;;;;;;;4.00;2.13;;;13.00;69.60;;;;;;6820266;26;20517;-65
2024/04/09 15:33:10;;;;;;;4.97;2.17;;;13.00;70.60;;;;;;6820484;26;20954;-65
2024/04/09 15:36:14;;;;;;;6.07;1.90;;;13.00;70.40;;;;;;6788041;26;20556;-65
2024/04/09 15:39:16;;;;;;;4.97;1.83;;;13.00;70.10;;;;;;6820270;26;20462;-65
2024/04/09 15:42:19;;;;;;;3.37;1.80;;;12.90;70.20;;;;;;6821024;26;20458;-66
2024/04/09 15:45:21;;;;;;;3.80;1.40;;;13.00;70.50;;;;;;6821135;26;20506;-65
2024/04/09 15:48:24;;;;;;;3.53;1.63;;;13.00;69.80;;;;;;6820415;26;20531;-66